SWA2702 KDAL-KELP
Flight info
| Callsign | SWA2702 |
|---|---|
| Flight time | N/A |
| Altitude | 40000 |
| Route | N0450F400 KKITY5 CIKAN DCT BGS DCT LIFFT SAMMR3 |
| Aircraft | B737/M-SDE2E3FGHIRWXY/LB1 |
Departure
| Time | 2026-05-01 14:35 |
|---|---|
| Airport | Dallas Love Field (KDAL) |
Arrival
| Time | N/A |
|---|---|
| Airport | El Paso International Airport (KELP) |
| Time | Latitude | Longitude | Altitude | Speed | Heading |
|---|---|---|---|---|---|
| 2026-05-01 14:00 | 32.84563 | -96.85166 | 495 ft | 0 kts | 360° |
| 2026-05-01 14:23 | 32.84552 | -96.85166 | 495 ft | 2 kts | 353° |
| 2026-05-01 14:23 | 32.84534 | -96.85160 | 495 ft | 3 kts | 333° |
| 2026-05-01 14:23 | 32.84518 | -96.85145 | 495 ft | 3 kts | 310° |
| 2026-05-01 14:24 | 32.84508 | -96.85124 | 495 ft | 3 kts | 289° |
| 2026-05-01 14:24 | 32.84505 | -96.85112 | 495 ft | 0 kts | 281° |
| 2026-05-01 14:28 | 32.84508 | -96.85130 | 495 ft | 6 kts | 281° |
| 2026-05-01 14:29 | 32.84510 | -96.85207 | 495 ft | 11 kts | 270° |
| 2026-05-01 14:29 | 32.84511 | -96.85276 | 495 ft | 6 kts | 270° |
| 2026-05-01 14:30 | 32.84474 | -96.85400 | 495 ft | 14 kts | 315° |
| 2026-05-01 14:30 | 32.84564 | -96.85501 | 495 ft | 18 kts | 317° |
| 2026-05-01 14:30 | 32.84644 | -96.85589 | 495 ft | 13 kts | 317° |
| 2026-05-01 14:31 | 32.84716 | -96.85677 | 495 ft | 3 kts | 314° |
| 2026-05-01 14:31 | 32.84722 | -96.85685 | 495 ft | 2 kts | 314° |
| 2026-05-01 14:31 | 32.84763 | -96.85734 | 495 ft | 15 kts | 316° |
| 2026-05-01 14:31 | 32.84868 | -96.85852 | 495 ft | 26 kts | 316° |
| 2026-05-01 14:32 | 32.85011 | -96.86017 | 495 ft | 29 kts | 316° |
| 2026-05-01 14:32 | 32.85140 | -96.86167 | 495 ft | 19 kts | 315° |
| 2026-05-01 14:32 | 32.85173 | -96.86265 | 495 ft | 10 kts | 246° |
| 2026-05-01 14:32 | 32.85141 | -96.86307 | 495 ft | 4 kts | 221° |
| 2026-05-01 14:33 | 32.85117 | -96.86323 | 495 ft | 6 kts | 173° |
| 2026-05-01 14:33 | 32.85099 | -96.86308 | 495 ft | 0 kts | 136° |
| 2026-05-01 14:34 | 32.85047 | -96.86246 | 495 ft | 35 kts | 135° |
| 2026-05-01 14:34 | 32.84705 | -96.85849 | 495 ft | 101 kts | 135° |
| 2026-05-01 14:34 | 32.84059 | -96.85105 | 522 ft | 152 kts | 135° |
| 2026-05-01 14:35 | 32.83287 | -96.84254 | 1131 ft | 153 kts | 137° |
| 2026-05-01 14:35 | 32.82512 | -96.83414 | 1844 ft | 151 kts | 134° |
| 2026-05-01 14:35 | 32.81716 | -96.82505 | 2301 ft | 168 kts | 130° |
| 2026-05-01 14:35 | 32.80854 | -96.81418 | 2631 ft | 193 kts | 129° |
| 2026-05-01 14:36 | 32.79892 | -96.80169 | 2926 ft | 217 kts | 130° |
| 2026-05-01 14:36 | 32.78822 | -96.78782 | 3265 ft | 236 kts | 130° |
| 2026-05-01 14:36 | 32.77650 | -96.77264 | 3642 ft | 262 kts | 130° |
| 2026-05-01 14:36 | 32.76383 | -96.75620 | 4385 ft | 275 kts | 130° |
| 2026-05-01 14:37 | 32.75072 | -96.73953 | 5249 ft | 283 kts | 134° |
| 2026-05-01 14:37 | 32.73656 | -96.72297 | 6179 ft | 289 kts | 136° |
| 2026-05-01 14:37 | 32.72038 | -96.70859 | 7026 ft | 292 kts | 155° |
| 2026-05-01 14:37 | 32.70110 | -96.70222 | 7957 ft | 286 kts | 180° |
| 2026-05-01 14:38 | 32.68183 | -96.70510 | 8933 ft | 275 kts | 204° |
| 2026-05-01 14:38 | 32.66579 | -96.71612 | 9947 ft | 263 kts | 223° |
| 2026-05-01 14:38 | 32.65105 | -96.72906 | 10917 ft | 266 kts | 217° |
| 2026-05-01 14:38 | 32.63430 | -96.73967 | 11654 ft | 280 kts | 213° |
| 2026-05-01 14:39 | 32.61789 | -96.75246 | 12140 ft | 286 kts | 230° |
| 2026-05-01 14:39 | 32.60681 | -96.77224 | 12582 ft | 295 kts | 251° |
| 2026-05-01 14:39 | 32.60364 | -96.79664 | 13134 ft | 307 kts | 272° |
| 2026-05-01 14:39 | 32.60822 | -96.82176 | 13922 ft | 317 kts | 283° |
| 2026-05-01 14:40 | 32.61385 | -96.84694 | 14780 ft | 314 kts | 275° |
| 2026-05-01 14:40 | 32.61618 | -96.87274 | 15560 ft | 316 kts | 268° |
| 2026-05-01 14:40 | 32.61654 | -96.89861 | 16269 ft | 320 kts | 266° |
| 2026-05-01 14:40 | 32.61620 | -96.92559 | 16951 ft | 326 kts | 265° |
| 2026-05-01 14:41 | 32.61597 | -96.95265 | 17658 ft | 330 kts | 266° |
| 2026-05-01 14:41 | 32.61607 | -96.97968 | 18322 ft | 334 kts | 266° |
| 2026-05-01 14:41 | 32.61617 | -97.00748 | 18973 ft | 338 kts | 266° |
| 2026-05-01 14:41 | 32.61624 | -97.03552 | 19603 ft | 342 kts | 266° |
| 2026-05-01 14:42 | 32.61629 | -97.06396 | 20274 ft | 344 kts | 266° |
| 2026-05-01 14:42 | 32.61633 | -97.09244 | 20913 ft | 347 kts | 266° |
| 2026-05-01 14:42 | 32.61636 | -97.12120 | 21518 ft | 350 kts | 265° |
| 2026-05-01 14:42 | 32.61637 | -97.15017 | 22097 ft | 352 kts | 265° |
| 2026-05-01 14:43 | 32.61639 | -97.17903 | 22659 ft | 354 kts | 264° |
| 2026-05-01 14:43 | 32.61640 | -97.20837 | 23216 ft | 356 kts | 264° |
| 2026-05-01 14:43 | 32.61640 | -97.23782 | 23752 ft | 358 kts | 263° |
| 2026-05-01 14:43 | 32.61641 | -97.26741 | 24266 ft | 360 kts | 263° |
| 2026-05-01 14:44 | 32.61642 | -97.29719 | 24753 ft | 362 kts | 262° |
| 2026-05-01 14:44 | 32.62065 | -97.35748 | 25755 ft | 372 kts | 270° |
| 2026-05-01 14:44 | 32.62521 | -97.38797 | 26146 ft | 377 kts | 271° |
| 2026-05-01 14:45 | 32.63008 | -97.41861 | 26532 ft | 379 kts | 271° |
| 2026-05-01 14:45 | 32.63961 | -97.48017 | 27273 ft | 383 kts | 271° |
| 2026-05-01 14:45 | 32.64436 | -97.51131 | 27626 ft | 385 kts | 271° |
| 2026-05-01 14:46 | 32.64912 | -97.54264 | 27965 ft | 387 kts | 271° |
| 2026-05-01 14:46 | 32.65855 | -97.60498 | 28598 ft | 390 kts | 272° |
| 2026-05-01 14:46 | 32.66348 | -97.63756 | 28906 ft | 392 kts | 272° |
| 2026-05-01 14:47 | 32.66831 | -97.66957 | 29195 ft | 394 kts | 272° |
| 2026-05-01 14:47 | 32.67278 | -97.70167 | 29475 ft | 393 kts | 269° |
| 2026-05-01 14:47 | 32.67465 | -97.73385 | 29840 ft | 387 kts | 264° |
| 2026-05-01 14:48 | 32.67261 | -97.79662 | 30682 ft | 381 kts | 260° |
| 2026-05-01 14:48 | 32.67042 | -97.82792 | 31094 ft | 379 kts | 260° |
| 2026-05-01 14:48 | 32.66606 | -97.89020 | 31935 ft | 376 kts | 261° |
| 2026-05-01 14:49 | 32.66133 | -97.95208 | 32639 ft | 377 kts | 261° |
| 2026-05-01 14:49 | 32.65640 | -98.01405 | 33318 ft | 377 kts | 261° |
| 2026-05-01 14:50 | 32.65309 | -98.05509 | 33769 ft | 377 kts | 261° |
| 2026-05-01 14:50 | 32.64639 | -98.13782 | 34649 ft | 378 kts | 262° |
| 2026-05-01 14:51 | 32.64387 | -98.16887 | 34960 ft | 378 kts | 262° |
| 2026-05-01 14:51 | 32.63882 | -98.23115 | 35557 ft | 379 kts | 263° |
| 2026-05-01 14:52 | 32.63372 | -98.29350 | 36123 ft | 380 kts | 263° |
| 2026-05-01 14:52 | 32.63115 | -98.32471 | 36395 ft | 380 kts | 263° |
| 2026-05-01 14:52 | 32.62596 | -98.38716 | 36920 ft | 381 kts | 263° |
| 2026-05-01 14:53 | 32.62334 | -98.41842 | 37175 ft | 381 kts | 263° |
| 2026-05-01 14:53 | 32.62075 | -98.44935 | 37442 ft | 381 kts | 263° |
| 2026-05-01 14:53 | 32.61812 | -98.48062 | 37675 ft | 381 kts | 264° |
| 2026-05-01 14:53 | 32.61548 | -98.51198 | 37919 ft | 381 kts | 264° |
| 2026-05-01 14:54 | 32.61284 | -98.54330 | 38071 ft | 383 kts | 263° |
| 2026-05-01 14:54 | 32.60748 | -98.60641 | 38081 ft | 384 kts | 263° |
| 2026-05-01 14:55 | 32.60243 | -98.66912 | 38083 ft | 380 kts | 264° |
| 2026-05-01 14:55 | 32.59738 | -98.73116 | 38083 ft | 381 kts | 263° |
| 2026-05-01 14:56 | 32.59214 | -98.79369 | 38090 ft | 381 kts | 263° |
| 2026-05-01 14:56 | 32.58684 | -98.85615 | 38091 ft | 381 kts | 263° |
| 2026-05-01 14:57 | 32.58147 | -98.91875 | 38093 ft | 381 kts | 263° |
| 2026-05-01 14:57 | 32.57366 | -99.01252 | 38091 ft | 383 kts | 263° |
| 2026-05-01 14:58 | 32.56817 | -99.07551 | 38096 ft | 384 kts | 263° |
| 2026-05-01 14:58 | 32.56258 | -99.13837 | 38097 ft | 383 kts | 262° |
| 2026-05-01 14:59 | 32.55694 | -99.20133 | 38098 ft | 383 kts | 262° |
| 2026-05-01 14:59 | 32.55130 | -99.26419 | 38098 ft | 383 kts | 262° |
| 2026-05-01 15:00 | 32.54320 | -99.35811 | 38100 ft | 384 kts | 264° |
| 2026-05-01 15:01 | 32.53959 | -99.42137 | 38101 ft | 384 kts | 264° |
| 2026-05-01 15:01 | 32.53588 | -99.48448 | 38103 ft | 384 kts | 264° |
| 2026-05-01 15:02 | 32.53203 | -99.54766 | 38104 ft | 384 kts | 264° |
| 2026-05-01 15:02 | 32.52815 | -99.61033 | 38104 ft | 384 kts | 264° |
| 2026-05-01 15:03 | 32.52419 | -99.67342 | 38103 ft | 384 kts | 264° |
| 2026-05-01 15:03 | 32.52022 | -99.73666 | 38100 ft | 384 kts | 264° |
| 2026-05-01 15:04 | 32.51660 | -99.79952 | 38096 ft | 384 kts | 264° |
| 2026-05-01 15:04 | 32.51275 | -99.86276 | 38093 ft | 384 kts | 264° |
| 2026-05-01 15:05 | 32.50878 | -99.92593 | 38091 ft | 385 kts | 264° |
| 2026-05-01 15:05 | 32.50503 | -99.98917 | 38092 ft | 385 kts | 264° |
| 2026-05-01 15:06 | 32.50097 | -100.05248 | 38094 ft | 385 kts | 264° |
| 2026-05-01 15:06 | 32.49679 | -100.11568 | 38097 ft | 385 kts | 264° |
| 2026-05-01 15:07 | 32.49257 | -100.17893 | 38100 ft | 385 kts | 264° |
| 2026-05-01 15:07 | 32.48832 | -100.24225 | 38104 ft | 386 kts | 264° |
| 2026-05-01 15:08 | 32.48410 | -100.30517 | 38107 ft | 386 kts | 263° |
| 2026-05-01 15:08 | 32.47931 | -100.36853 | 38108 ft | 386 kts | 263° |
| 2026-05-01 15:09 | 32.47413 | -100.43191 | 38110 ft | 386 kts | 263° |
| 2026-05-01 15:09 | 32.46895 | -100.49529 | 38110 ft | 386 kts | 263° |
| 2026-05-01 15:10 | 32.46377 | -100.55830 | 38109 ft | 386 kts | 263° |
| 2026-05-01 15:10 | 32.45591 | -100.65338 | 38105 ft | 386 kts | 263° |
| 2026-05-01 15:11 | 32.44820 | -100.74850 | 38100 ft | 387 kts | 263° |
| 2026-05-01 15:12 | 32.44320 | -100.81201 | 38096 ft | 387 kts | 263° |
| 2026-05-01 15:12 | 32.43544 | -100.90676 | 38092 ft | 387 kts | 263° |
| 2026-05-01 15:14 | 32.42212 | -101.06562 | 38091 ft | 388 kts | 263° |
| 2026-05-01 15:14 | 32.41427 | -101.16113 | 38087 ft | 388 kts | 263° |
| 2026-05-01 15:15 | 32.40333 | -101.28769 | 38086 ft | 388 kts | 263° |
| 2026-05-01 15:16 | 32.39306 | -101.40411 | 38090 ft | 388 kts | 263° |
| 2026-05-01 15:18 | 32.37662 | -101.56286 | 38094 ft | 389 kts | 261° |
| 2026-05-01 15:19 | 32.36014 | -101.68949 | 38096 ft | 389 kts | 261° |
| 2026-05-01 15:19 | 32.34788 | -101.78450 | 38097 ft | 390 kts | 261° |
| 2026-05-01 15:20 | 32.33559 | -101.87956 | 38098 ft | 390 kts | 261° |
| 2026-05-01 15:21 | 32.32784 | -101.94266 | 38098 ft | 390 kts | 261° |
| 2026-05-01 15:21 | 32.31990 | -102.00610 | 38097 ft | 390 kts | 261° |
| 2026-05-01 15:22 | 32.30776 | -102.10122 | 38098 ft | 390 kts | 261° |
| 2026-05-01 15:22 | 32.29959 | -102.16461 | 38097 ft | 390 kts | 261° |
| 2026-05-01 15:23 | 32.29141 | -102.22766 | 38096 ft | 390 kts | 261° |
| 2026-05-01 15:23 | 32.28315 | -102.29105 | 38095 ft | 390 kts | 261° |
| 2026-05-01 15:24 | 32.27486 | -102.35435 | 38094 ft | 390 kts | 260° |
| 2026-05-01 15:24 | 32.26653 | -102.41773 | 38092 ft | 390 kts | 260° |
| 2026-05-01 15:25 | 32.25817 | -102.48105 | 38091 ft | 390 kts | 260° |
| 2026-05-01 15:25 | 32.24979 | -102.54430 | 38152 ft | 390 kts | 260° |
| 2026-05-01 15:26 | 32.24142 | -102.60717 | 38183 ft | 390 kts | 260° |
| 2026-05-01 15:26 | 32.23296 | -102.67052 | 38196 ft | 390 kts | 260° |
| 2026-05-01 15:27 | 32.22448 | -102.73377 | 38201 ft | 390 kts | 260° |
| 2026-05-01 15:28 | 32.21170 | -102.82863 | 38181 ft | 390 kts | 260° |
| 2026-05-01 15:28 | 32.20315 | -102.89171 | 38162 ft | 389 kts | 260° |
| 2026-05-01 15:29 | 32.19032 | -102.98605 | 38135 ft | 389 kts | 260° |
| 2026-05-01 15:30 | 32.17304 | -103.11220 | 38111 ft | 389 kts | 260° |
| 2026-05-01 15:31 | 32.14691 | -103.30117 | 38094 ft | 389 kts | 260° |
| 2026-05-01 15:32 | 32.12933 | -103.42711 | 38077 ft | 389 kts | 260° |
| 2026-05-01 15:34 | 32.10274 | -103.61588 | 38074 ft | 390 kts | 260° |